Indianapolis, Indiana
Traffic Map
Current Weather Conditions
Indianapolis, Indiana
Broken Clouds
Broken Clouds
74°
Feels Like: 74°
Wind Chill: 74° Ceiling: 23000
Heat Index: 74° Visibility: 10mi
Dew Point: 65° Wind: 14mph
Humidity: 73% Direction: 360° (N)
Pressure: 30in Gusts: 25mph
Raw Report DataKIND 010054Z 36012G22KT 10SM FEW040 SCT060 BKN230 23/18 A3000 RMK AO2 SLP151 T02330183
Traffic Incident Summary
Active as of:
Severity:
Category:
InformationThere was an issue retrieving the traffic information for this location. Please try a different location or try again shortly.
Advertisements
Track Severe Weather on mobile